createdAt,value
2024-03-25T00:00:33.090Z,7.42
2024-03-25T00:01:33.057Z,7.40
2024-03-25T00:02:33.046Z,7.37
2024-03-25T00:03:33.073Z,7.34
2024-03-25T00:04:33.027Z,7.31
2024-03-25T00:05:33.030Z,7.28
2024-03-25T00:06:33.024Z,7.26
2024-03-25T00:07:33.004Z,7.22
2024-03-25T00:08:32.983Z,7.16
2024-03-25T00:09:33.069Z,7.13
2024-03-25T00:10:33.000Z,7.08
2024-03-25T00:11:32.950Z,7.06
2024-03-25T00:12:32.954Z,7.02
2024-03-25T00:13:32.933Z,7.00
2024-03-25T00:14:32.920Z,6.96
2024-03-25T00:15:32.941Z,6.94
2024-03-25T00:16:32.954Z,6.89
2024-03-25T00:17:32.917Z,6.88
2024-03-25T00:18:32.893Z,6.84
2024-03-25T00:19:32.878Z,6.82
2024-03-25T00:20:32.900Z,6.79
2024-03-25T00:21:32.892Z,6.77
2024-03-25T00:22:32.859Z,6.73
2024-03-25T00:23:32.829Z,6.72
2024-03-25T00:24:32.834Z,6.71
2024-03-25T00:25:32.814Z,6.69
2024-03-25T00:26:32.807Z,6.68
2024-03-25T00:27:32.816Z,6.65
2024-03-25T00:28:32.775Z,6.64
2024-03-25T00:29:32.766Z,6.61
2024-03-25T00:30:32.767Z,6.61
2024-03-25T00:31:32.767Z,6.60
2024-03-25T00:32:32.739Z,6.58
2024-03-25T00:33:32.770Z,6.59
2024-03-25T00:34:32.726Z,6.59
2024-03-25T00:35:32.830Z,6.60
2024-03-25T00:36:32.699Z,6.60
2024-03-25T00:37:32.757Z,6.62
2024-03-25T00:39:32.796Z,6.62
2024-03-25T00:40:32.802Z,6.63
2024-03-25T00:41:32.750Z,6.62
2024-03-25T00:42:32.633Z,6.62
2024-03-25T00:43:32.643Z,6.63
2024-03-25T00:44:32.633Z,6.63
2024-03-25T00:45:32.654Z,6.64
2024-03-25T00:46:32.613Z,6.62
2024-03-25T00:47:32.585Z,6.63
2024-03-25T00:48:32.591Z,6.60
2024-03-25T00:49:32.566Z,6.60
2024-03-25T00:50:32.554Z,6.60
2024-03-25T00:51:32.571Z,6.57
2024-03-25T00:52:32.530Z,6.57
2024-03-25T00:53:32.531Z,6.54
2024-03-25T00:54:32.503Z,6.54
2024-03-25T00:55:32.511Z,6.52
2024-03-25T00:56:32.489Z,6.52
2024-03-25T00:57:32.490Z,6.51
2024-03-25T00:58:32.469Z,6.50
2024-03-25T00:59:32.457Z,6.48
2024-03-25T01:00:32.473Z,6.46
2024-03-25T01:01:32.452Z,6.44
2024-03-25T01:02:32.421Z,6.41
2024-03-25T01:03:32.422Z,6.37
2024-03-25T01:04:32.402Z,6.35
2024-03-25T01:05:32.397Z,6.33
2024-03-25T01:06:32.373Z,6.29
2024-03-25T01:07:32.377Z,6.27
2024-03-25T01:08:32.357Z,6.23
2024-03-25T01:09:32.380Z,6.22
2024-03-25T01:10:32.354Z,6.19
2024-03-25T01:11:32.349Z,6.16
2024-03-25T01:12:32.308Z,6.14
2024-03-25T01:13:32.325Z,6.12
2024-03-25T01:14:32.292Z,6.08
2024-03-25T01:15:32.306Z,6.07
2024-03-25T01:16:32.277Z,6.06
2024-03-25T01:17:32.263Z,6.05
2024-03-25T01:18:32.248Z,6.00
2024-03-25T01:19:32.261Z,6.00
2024-03-25T01:20:32.232Z,6.00
2024-03-25T01:21:32.260Z,5.99
2024-03-25T01:22:32.218Z,5.96
2024-03-25T01:23:32.206Z,5.96
2024-03-25T01:24:32.189Z,5.94
2024-03-25T01:25:32.182Z,5.90
2024-03-25T01:26:32.157Z,5.87
2024-03-25T01:27:32.188Z,5.82
2024-03-25T01:28:32.143Z,5.79
2024-03-25T01:29:32.130Z,5.75
2024-03-25T01:30:32.113Z,5.72
2024-03-25T01:31:32.115Z,5.67
2024-03-25T01:32:32.090Z,5.61
2024-03-25T01:33:32.121Z,5.57
2024-03-25T01:34:32.087Z,5.55
2024-03-25T01:35:32.082Z,5.49
2024-03-25T01:36:32.050Z,5.46
2024-03-25T01:37:32.044Z,5.42
2024-03-25T01:38:32.027Z,5.41
2024-03-25T01:39:32.066Z,5.35
2024-03-25T01:40:32.015Z,5.32
2024-03-25T01:41:32.012Z,5.30
2024-03-25T01:42:31.984Z,5.25
2024-03-25T01:43:31.978Z,5.24
2024-03-25T01:44:31.961Z,5.21
2024-03-25T01:45:32.003Z,5.20
2024-03-25T01:46:31.933Z,5.19
2024-03-25T01:47:32.060Z,5.18
2024-03-25T01:48:31.927Z,5.18
2024-03-25T01:49:31.925Z,5.17
2024-03-25T01:50:31.896Z,5.16
2024-03-25T01:51:31.938Z,5.17
2024-03-25T01:52:31.870Z,5.17
2024-03-25T01:53:31.862Z,5.16
2024-03-25T01:54:32.472Z,5.17
2024-03-25T01:55:31.847Z,5.16
2024-03-25T01:56:31.837Z,5.16
2024-03-25T01:57:31.860Z,5.17
2024-03-25T01:58:31.807Z,5.18
2024-03-25T01:59:31.802Z,5.18
2024-03-25T02:00:31.799Z,5.18
2024-03-25T02:01:31.801Z,5.16
2024-03-25T02:02:31.769Z,5.14
2024-03-25T02:03:31.808Z,5.12
2024-03-25T02:04:31.749Z,5.12
2024-03-25T02:05:31.744Z,5.13
2024-03-25T02:06:31.729Z,5.10
2024-03-25T02:07:31.723Z,5.08
2024-03-25T02:08:31.705Z,5.06
2024-03-25T02:09:31.714Z,5.05
2024-03-25T02:10:31.679Z,5.09
2024-03-25T02:11:31.679Z,5.07
2024-03-25T02:12:31.668Z,5.08
2024-03-25T02:13:31.666Z,5.08
2024-03-25T02:14:31.645Z,5.09
2024-03-25T02:15:31.650Z,5.07
2024-03-25T02:16:31.613Z,5.08
2024-03-25T02:17:31.610Z,5.08
2024-03-25T02:18:31.595Z,5.05
2024-03-25T02:19:31.615Z,5.04
2024-03-25T02:20:31.590Z,5.04
2024-03-25T02:21:31.618Z,5.04
2024-03-25T02:22:31.590Z,5.03
2024-03-25T02:23:31.554Z,5.04
2024-03-25T02:24:31.524Z,5.03
2024-03-25T02:25:31.592Z,5.03
2024-03-25T02:26:31.527Z,5.05
2024-03-25T02:27:31.538Z,5.05
2024-03-25T02:28:31.488Z,5.05
2024-03-25T02:29:31.492Z,5.04
2024-03-25T02:30:31.463Z,5.02
2024-03-25T02:31:31.491Z,5.01
2024-03-25T02:32:31.459Z,4.99
2024-03-25T02:33:31.484Z,4.97
2024-03-25T02:34:31.422Z,4.94
2024-03-25T02:35:31.439Z,4.92
2024-03-25T02:36:31.407Z,4.90
2024-03-25T02:37:31.399Z,4.88
2024-03-25T02:38:31.390Z,4.85
2024-03-25T02:39:31.400Z,4.85
2024-03-25T02:40:31.360Z,4.84
2024-03-25T02:41:31.369Z,4.82
2024-03-25T02:42:31.353Z,4.81
2024-03-25T02:43:31.349Z,4.80
2024-03-25T02:44:31.333Z,4.80
2024-03-25T02:45:31.341Z,4.77
2024-03-25T02:46:31.300Z,4.77
2024-03-25T02:47:31.312Z,4.76
2024-03-25T02:48:31.280Z,4.76
2024-03-25T02:49:31.278Z,4.77
2024-03-25T02:50:31.295Z,4.79
2024-03-25T02:51:31.268Z,4.76
2024-03-25T02:52:31.245Z,4.78
2024-03-25T02:53:31.266Z,4.78
2024-03-25T02:54:31.238Z,4.77
2024-03-25T02:55:31.218Z,4.78
2024-03-25T02:56:31.220Z,4.79
2024-03-25T02:57:31.250Z,4.76
2024-03-25T02:58:31.182Z,4.79
2024-03-25T02:59:31.190Z,4.78
2024-03-25T03:00:31.166Z,4.80
2024-03-25T03:01:31.179Z,4.80
2024-03-25T03:02:31.163Z,4.80
2024-03-25T03:03:31.160Z,4.79
2024-03-25T03:04:31.124Z,4.80
2024-03-25T03:05:31.125Z,4.79
2024-03-25T03:06:31.122Z,4.79
2024-03-25T03:07:31.140Z,4.78
2024-03-25T03:08:31.090Z,4.78
2024-03-25T03:09:31.116Z,4.76
2024-03-25T03:10:31.078Z,4.75
2024-03-25T03:11:31.058Z,4.73
2024-03-25T03:12:31.085Z,4.73
2024-03-25T03:13:31.036Z,4.72
2024-03-25T03:14:31.032Z,4.72
2024-03-25T03:15:31.049Z,4.73
2024-03-25T03:16:31.005Z,4.72
2024-03-25T03:17:30.993Z,4.73
2024-03-25T03:18:31.002Z,4.74
2024-03-25T03:19:30.978Z,4.74
2024-03-25T03:20:30.973Z,4.73
2024-03-25T03:21:30.998Z,4.73
2024-03-25T03:22:30.945Z,4.72
2024-03-25T03:23:30.947Z,4.70
2024-03-25T03:24:30.926Z,4.67
2024-03-25T03:25:30.929Z,4.64
2024-03-25T03:26:30.910Z,4.62
2024-03-25T03:27:30.928Z,4.58
2024-03-25T03:28:30.883Z,4.54
2024-03-25T03:29:30.895Z,4.51
2024-03-25T03:30:30.878Z,4.48
2024-03-25T03:31:30.874Z,4.46
2024-03-25T03:32:30.845Z,4.46
2024-03-25T03:33:30.884Z,4.44
2024-03-25T03:34:30.832Z,4.42
2024-03-25T03:35:30.822Z,4.41
2024-03-25T03:36:30.821Z,4.40
2024-03-25T03:37:30.805Z,4.40
2024-03-25T03:38:30.787Z,4.37
2024-03-25T03:39:30.810Z,4.37
2024-03-25T03:40:30.760Z,4.34
2024-03-25T03:41:30.756Z,4.32
2024-03-25T03:42:30.752Z,4.30
2024-03-25T03:43:30.732Z,4.27
2024-03-25T03:44:30.721Z,4.24
2024-03-25T03:45:30.747Z,4.21
2024-03-25T03:46:30.697Z,4.17
2024-03-25T03:47:30.703Z,4.14
2024-03-25T03:48:30.686Z,4.11
2024-03-25T03:49:30.680Z,4.08
2024-03-25T03:50:30.651Z,4.02
2024-03-25T03:51:30.685Z,4.01
2024-03-25T03:52:30.647Z,3.98
2024-03-25T03:53:30.633Z,3.95
2024-03-25T03:54:30.623Z,3.91
2024-03-25T03:55:30.607Z,3.89
2024-03-25T03:56:30.589Z,3.86
2024-03-25T03:57:30.615Z,3.81
2024-03-25T03:58:30.573Z,3.77
2024-03-25T03:59:30.567Z,3.78
2024-03-25T04:00:30.567Z,3.74
2024-03-25T04:01:30.545Z,3.71
2024-03-25T04:02:30.525Z,3.69
2024-03-25T04:03:30.546Z,3.66
2024-03-25T04:04:30.501Z,3.66
2024-03-25T04:05:30.507Z,3.62
2024-03-25T04:06:30.506Z,3.62
2024-03-25T04:07:30.479Z,3.62
2024-03-25T04:08:30.462Z,3.62
2024-03-25T04:09:30.484Z,3.61
2024-03-25T04:10:30.480Z,3.61
2024-03-25T04:11:30.443Z,3.61
2024-03-25T04:12:30.441Z,3.61
2024-03-25T04:13:30.410Z,3.59
2024-03-25T04:14:30.477Z,3.58
2024-03-25T04:15:30.413Z,3.55
2024-03-25T04:16:30.413Z,3.57
2024-03-25T04:17:30.372Z,3.52
2024-03-25T04:18:30.363Z,3.51
2024-03-25T04:19:30.379Z,3.51
2024-03-25T04:20:30.341Z,3.48
2024-03-25T04:21:30.351Z,3.46
2024-03-25T04:22:30.333Z,3.44
2024-03-25T04:23:30.306Z,3.43
2024-03-25T04:24:30.299Z,3.38
2024-03-25T04:25:30.344Z,3.35
2024-03-25T04:26:30.293Z,3.34
2024-03-25T04:27:30.270Z,3.30
2024-03-25T04:28:30.268Z,3.26
2024-03-25T04:29:30.245Z,3.25
2024-03-25T04:30:30.248Z,3.21
2024-03-25T04:31:30.286Z,3.19
2024-03-25T04:32:30.261Z,3.16
2024-03-25T04:33:30.219Z,3.13
2024-03-25T04:34:30.195Z,3.11
2024-03-25T04:35:30.192Z,3.09
2024-03-25T04:36:31.339Z,3.07
2024-03-25T04:37:30.187Z,3.06
2024-03-25T04:38:30.173Z,3.02
2024-03-25T04:39:30.162Z,3.00
2024-03-25T04:40:30.137Z,2.99
2024-03-25T04:41:30.140Z,2.95
2024-03-25T04:42:30.162Z,2.93
2024-03-25T04:43:30.145Z,2.92
2024-03-25T04:44:30.112Z,2.91
2024-03-25T04:45:30.077Z,2.89
2024-03-25T04:46:30.071Z,2.86
2024-03-25T04:47:30.067Z,2.86
2024-03-25T04:48:30.148Z,2.84
2024-03-25T04:49:30.054Z,2.82
2024-03-25T04:50:30.045Z,2.81
2024-03-25T04:51:30.025Z,2.79
2024-03-25T04:52:30.025Z,2.77
2024-03-25T04:53:30.000Z,2.78
2024-03-25T04:54:30.016Z,2.77
2024-03-25T04:55:29.987Z,2.75
2024-03-25T04:56:29.974Z,2.74
2024-03-25T04:57:29.962Z,2.72
2024-03-25T04:58:29.953Z,2.71
2024-03-25T04:59:29.940Z,2.70
2024-03-25T05:00:29.946Z,2.69
2024-03-25T05:01:29.932Z,2.68
2024-03-25T05:02:29.917Z,2.67
2024-03-25T05:03:29.907Z,2.65
2024-03-25T05:04:29.889Z,2.64
2024-03-25T05:05:29.902Z,2.62
2024-03-25T05:06:29.877Z,2.61
2024-03-25T05:07:29.857Z,2.60
2024-03-25T05:08:29.854Z,2.59
2024-03-25T05:09:29.839Z,2.57
2024-03-25T05:10:29.826Z,2.57
2024-03-25T05:11:29.872Z,2.55
2024-03-25T05:12:29.820Z,2.56
2024-03-25T05:13:29.797Z,2.53
2024-03-25T05:14:29.850Z,2.52
2024-03-25T05:15:29.796Z,2.53
2024-03-25T05:16:29.766Z,2.52
2024-03-25T05:17:29.777Z,2.49
2024-03-25T05:18:29.751Z,2.49
2024-03-25T05:19:29.731Z,2.48
2024-03-25T05:20:30.468Z,2.46
2024-03-25T05:21:29.714Z,2.44
2024-03-25T05:22:29.729Z,2.45
2024-03-25T05:23:29.684Z,2.45
2024-03-25T05:24:29.686Z,2.43
2024-03-25T05:25:29.682Z,2.42
2024-03-25T05:26:29.660Z,2.44
2024-03-25T05:27:29.646Z,2.40
2024-03-25T05:28:29.666Z,2.40
2024-03-25T05:29:29.627Z,2.40
2024-03-25T05:30:29.627Z,2.41
2024-03-25T05:31:29.600Z,2.40
2024-03-25T05:32:29.640Z,2.39
2024-03-25T05:33:29.601Z,2.40
2024-03-25T05:34:29.596Z,2.41
2024-03-25T05:35:29.571Z,2.40
2024-03-25T05:36:29.553Z,2.43
2024-03-25T05:37:29.547Z,2.42
2024-03-25T05:38:29.538Z,2.41
2024-03-25T05:39:29.542Z,2.42
2024-03-25T05:40:29.526Z,2.44
2024-03-25T05:41:29.506Z,2.45
2024-03-25T05:42:29.516Z,2.46
2024-03-25T05:43:29.485Z,2.45
2024-03-25T05:44:29.505Z,2.47
2024-03-25T05:45:29.492Z,2.47
2024-03-25T05:46:29.451Z,2.48
2024-03-25T05:47:29.439Z,2.49
2024-03-25T05:48:29.432Z,2.50
2024-03-25T05:49:29.428Z,2.50
2024-03-25T05:50:29.410Z,2.50
2024-03-25T05:51:29.424Z,2.50
2024-03-25T05:52:29.397Z,2.53
2024-03-25T05:53:29.685Z,2.54
2024-03-25T05:54:29.374Z,2.56
2024-03-25T05:55:29.361Z,2.57
2024-03-25T05:56:29.389Z,2.58
2024-03-25T05:57:29.379Z,2.60
2024-03-25T05:58:29.341Z,2.60
2024-03-25T05:59:29.332Z,2.63
2024-03-25T06:00:29.320Z,2.62
2024-03-25T06:01:29.327Z,2.64
2024-03-25T06:02:29.370Z,2.64
2024-03-25T06:03:29.283Z,2.66
2024-03-25T06:04:29.271Z,2.67
2024-03-25T06:05:29.272Z,2.67
2024-03-25T06:06:29.251Z,2.69
2024-03-25T06:07:29.277Z,2.70
2024-03-25T06:08:29.242Z,2.72
2024-03-25T06:09:29.207Z,2.73
2024-03-25T06:10:29.969Z,2.76
2024-03-25T06:11:29.221Z,2.77
2024-03-25T06:12:29.212Z,2.80
2024-03-25T06:13:29.190Z,2.82
2024-03-25T06:14:29.220Z,2.79
2024-03-25T06:15:29.159Z,2.81
2024-03-25T06:16:29.138Z,2.84
2024-03-25T06:17:29.135Z,2.87
2024-03-25T06:18:29.162Z,2.88
2024-03-25T06:19:29.138Z,2.92
2024-03-25T06:20:29.103Z,2.93
2024-03-25T06:21:29.089Z,2.93
2024-03-25T06:22:29.117Z,2.97
2024-03-25T06:23:29.081Z,3.01
2024-03-25T06:24:29.071Z,3.11
2024-03-25T06:25:29.075Z,3.28
2024-03-25T06:26:29.042Z,3.46
2024-03-25T06:27:29.042Z,3.66
2024-03-25T06:28:29.018Z,3.87
2024-03-25T06:29:29.005Z,4.12
2024-03-25T06:30:29.026Z,4.37
2024-03-25T06:31:28.995Z,4.64
2024-03-25T06:32:29.000Z,4.90
2024-03-25T06:33:28.965Z,5.18
2024-03-25T06:34:28.949Z,5.43
2024-03-25T06:35:28.952Z,5.68
2024-03-25T06:36:29.002Z,5.93
2024-03-25T06:37:28.922Z,6.14
2024-03-25T06:38:28.909Z,6.36
2024-03-25T06:39:28.903Z,6.57
2024-03-25T06:40:28.905Z,6.79
2024-03-25T06:41:28.876Z,7.02
2024-03-25T06:42:28.922Z,7.23
2024-03-25T06:43:28.917Z,7.42
2024-03-25T06:44:28.852Z,7.60
2024-03-25T06:45:28.850Z,7.80
2024-03-25T06:46:28.840Z,7.95
2024-03-25T06:47:28.839Z,8.14
2024-03-25T06:48:28.806Z,8.34
2024-03-25T06:49:28.802Z,8.51
2024-03-25T06:50:28.811Z,8.72
2024-03-25T06:51:28.777Z,8.91
2024-03-25T06:52:28.804Z,9.11
2024-03-25T06:53:28.808Z,9.28
2024-03-25T06:54:28.759Z,9.44
2024-03-25T06:55:28.739Z,9.60
2024-03-25T06:56:28.748Z,9.73
2024-03-25T06:57:28.725Z,9.84
2024-03-25T06:58:28.706Z,9.96
2024-03-25T06:59:28.713Z,10.09
2024-03-25T07:00:28.706Z,10.19
2024-03-25T07:01:28.671Z,10.28
2024-03-25T07:02:28.684Z,10.38
2024-03-25T07:03:28.647Z,10.49
2024-03-25T07:04:28.667Z,10.62
2024-03-25T07:05:28.646Z,10.74
2024-03-25T07:06:28.620Z,10.83
2024-03-25T07:07:28.605Z,10.86
2024-03-25T07:08:28.638Z,10.93
2024-03-25T07:09:28.577Z,11.01
2024-03-25T07:10:28.609Z,11.24
2024-03-25T07:11:28.594Z,11.43
2024-03-25T07:12:28.583Z,11.55
2024-03-25T07:13:28.570Z,11.63
2024-03-25T07:14:28.643Z,11.69
2024-03-25T07:15:28.520Z,11.83
2024-03-25T07:16:28.526Z,11.91
2024-03-25T07:17:28.519Z,11.98
2024-03-25T07:18:28.500Z,12.04
2024-03-25T07:19:28.479Z,12.10
2024-03-25T07:20:28.474Z,12.16
2024-03-25T07:21:28.544Z,12.16
2024-03-25T07:22:28.507Z,12.14
2024-03-25T07:23:28.457Z,12.14
2024-03-25T07:24:28.450Z,12.10
2024-03-25T07:25:28.412Z,12.16
2024-03-25T07:26:28.471Z,12.26
2024-03-25T07:27:28.417Z,12.24
2024-03-25T07:28:28.395Z,12.29
2024-03-25T07:29:28.380Z,12.42
2024-03-25T07:30:28.413Z,12.53
2024-03-25T07:31:28.367Z,12.68
2024-03-25T07:32:28.352Z,12.84
2024-03-25T07:33:28.387Z,13.06
2024-03-25T07:34:28.329Z,13.27
2024-03-25T07:35:28.325Z,13.42
2024-03-25T07:36:28.301Z,13.60
2024-03-25T07:37:28.287Z,13.74
2024-03-25T07:38:28.292Z,13.86
2024-03-25T07:39:28.287Z,13.93
2024-03-25T07:40:28.257Z,13.98
2024-03-25T07:41:28.260Z,14.01
2024-03-25T07:42:28.244Z,14.03
2024-03-25T07:43:28.217Z,13.98
2024-03-25T07:44:28.249Z,13.95
2024-03-25T07:45:28.245Z,13.89
2024-03-25T07:46:28.195Z,13.78
2024-03-25T07:47:28.212Z,13.70
2024-03-25T07:48:28.187Z,13.68
2024-03-25T07:49:28.170Z,13.63
2024-03-25T07:50:28.185Z,13.58
2024-03-25T07:51:28.149Z,13.49
2024-03-25T07:52:28.135Z,13.40
2024-03-25T07:53:28.128Z,13.39
2024-03-25T07:54:28.168Z,13.40
2024-03-25T07:55:28.118Z,13.34
2024-03-25T07:56:28.123Z,13.29
2024-03-25T07:57:28.077Z,13.36
2024-03-25T07:58:28.079Z,13.45
2024-03-25T07:59:28.055Z,13.53
2024-03-25T08:00:28.053Z,13.61
2024-03-25T08:01:28.102Z,13.70
2024-03-25T08:02:28.030Z,13.76
2024-03-25T08:03:28.020Z,13.79
2024-03-25T08:04:28.020Z,13.89
2024-03-25T08:05:27.993Z,14.01
2024-03-25T08:06:27.984Z,14.14
2024-03-25T08:07:28.006Z,14.25
2024-03-25T08:08:27.988Z,14.33
2024-03-25T08:09:27.953Z,14.45
2024-03-25T08:10:27.959Z,14.54
2024-03-25T08:11:27.962Z,14.61
2024-03-25T08:12:27.950Z,14.66
2024-03-25T08:13:27.921Z,14.64
2024-03-25T08:14:27.897Z,14.65
2024-03-25T08:15:27.892Z,14.68
2024-03-25T08:16:27.950Z,14.71
2024-03-25T08:17:27.888Z,14.73
2024-03-25T08:18:27.880Z,14.73
2024-03-25T08:19:27.925Z,14.74
2024-03-25T08:20:27.835Z,14.74
2024-03-25T08:21:27.821Z,14.76
2024-03-25T08:22:27.832Z,14.79
2024-03-25T08:23:27.846Z,14.80
2024-03-25T08:24:27.810Z,14.80
2024-03-25T08:25:27.788Z,14.81
2024-03-25T08:26:27.776Z,14.79
2024-03-25T08:27:27.762Z,14.74
2024-03-25T08:28:27.754Z,14.73
2024-03-25T08:29:27.771Z,14.75
2024-03-25T08:30:27.731Z,14.80
2024-03-25T08:31:27.721Z,14.83
2024-03-25T08:32:27.713Z,14.86
2024-03-25T08:33:27.721Z,14.90
2024-03-25T08:34:27.733Z,14.90
2024-03-25T08:35:27.697Z,14.93
2024-03-25T08:36:27.662Z,14.97
2024-03-25T08:37:27.670Z,15.00
2024-03-25T08:38:27.663Z,15.03
2024-03-25T08:39:27.635Z,15.01
2024-03-25T08:40:27.649Z,15.07
2024-03-25T08:41:27.646Z,15.15
2024-03-25T08:42:27.609Z,15.21
2024-03-25T08:43:27.605Z,15.29
2024-03-25T08:44:27.576Z,15.36
2024-03-25T08:45:27.645Z,15.38
2024-03-25T08:46:27.597Z,15.41
2024-03-25T08:47:27.593Z,15.43
2024-03-25T08:48:27.553Z,15.47
2024-03-25T08:49:27.526Z,15.48
2024-03-25T08:50:27.540Z,15.46
2024-03-25T08:51:27.510Z,15.49
2024-03-25T08:52:27.546Z,15.50
2024-03-25T08:53:27.488Z,15.57
2024-03-25T08:54:27.496Z,15.59
2024-03-25T08:55:27.462Z,15.59
2024-03-25T08:56:27.453Z,15.57
2024-03-25T08:57:27.557Z,15.58
2024-03-25T08:58:27.449Z,15.52
2024-03-25T08:59:27.432Z,15.52
2024-03-25T09:00:27.422Z,15.58
2024-03-25T09:01:27.437Z,15.59
2024-03-25T09:02:27.382Z,15.61
2024-03-25T09:03:27.395Z,15.64
2024-03-25T09:04:28.385Z,15.59
2024-03-25T09:05:27.362Z,15.58
2024-03-25T09:06:27.351Z,15.59
2024-03-25T09:07:27.352Z,15.60
2024-03-25T09:08:27.351Z,15.55
2024-03-25T09:09:27.355Z,15.54
2024-03-25T09:10:27.309Z,15.57
2024-03-25T09:11:27.299Z,15.59
2024-03-25T09:12:27.273Z,15.62
2024-03-25T09:13:27.300Z,15.69
2024-03-25T09:14:27.368Z,15.74
2024-03-25T09:15:27.275Z,15.83
2024-03-25T09:16:27.327Z,15.83
2024-03-25T09:17:27.315Z,15.83
2024-03-25T09:18:27.215Z,15.95
2024-03-25T09:19:27.264Z,16.02
2024-03-25T09:20:27.223Z,16.13
2024-03-25T09:21:27.235Z,16.23
2024-03-25T09:22:27.200Z,16.29
2024-03-25T09:23:27.163Z,16.40
2024-03-25T09:24:27.150Z,16.49
2024-03-25T09:25:27.184Z,16.56
2024-03-25T09:26:27.169Z,16.60
2024-03-25T09:27:27.160Z,16.68
2024-03-25T09:28:27.191Z,16.76
2024-03-25T09:29:27.145Z,16.78
2024-03-25T09:30:27.087Z,16.85
2024-03-25T09:31:27.085Z,16.91
2024-03-25T09:32:27.094Z,16.96
2024-03-25T09:33:27.112Z,16.96
2024-03-25T09:34:27.072Z,16.98
2024-03-25T09:35:27.079Z,17.00
2024-03-25T09:36:27.059Z,17.02
2024-03-25T09:37:27.020Z,17.04
2024-03-25T09:38:27.041Z,17.07
2024-03-25T09:39:27.010Z,17.09
2024-03-25T09:40:26.998Z,17.09
2024-03-25T09:41:26.978Z,17.11
2024-03-25T09:42:27.076Z,17.15
2024-03-25T09:43:26.947Z,17.22
2024-03-25T09:44:26.981Z,17.27
2024-03-25T09:45:26.939Z,17.37
2024-03-25T09:46:26.938Z,17.43
2024-03-25T09:47:26.921Z,17.47
2024-03-25T09:48:26.887Z,17.45
2024-03-25T09:49:26.886Z,17.49
2024-03-25T09:50:26.931Z,17.55
2024-03-25T09:51:26.870Z,17.62
2024-03-25T09:52:26.868Z,17.70
2024-03-25T09:53:26.858Z,17.77
2024-03-25T09:54:26.835Z,17.83
2024-03-25T09:55:26.852Z,17.88
2024-03-25T09:56:26.810Z,17.93
2024-03-25T09:57:26.809Z,17.90
2024-03-25T09:58:26.783Z,17.92
2024-03-25T09:59:26.817Z,18.00
2024-03-25T10:00:26.759Z,18.02
2024-03-25T10:01:26.774Z,18.10
2024-03-25T10:02:26.761Z,18.25
2024-03-25T10:03:26.735Z,18.41
2024-03-25T10:04:26.718Z,18.51
2024-03-25T10:05:26.736Z,18.59
2024-03-25T10:06:26.724Z,18.73
2024-03-25T10:07:26.819Z,18.91
2024-03-25T10:08:26.715Z,19.02
2024-03-25T10:09:26.700Z,19.08
2024-03-25T10:10:26.663Z,19.06
2024-03-25T10:11:26.774Z,19.10
2024-03-25T10:12:26.631Z,19.10
2024-03-25T10:13:26.658Z,19.22
2024-03-25T10:14:26.622Z,19.24
2024-03-25T10:15:26.601Z,19.29
2024-03-25T10:16:26.718Z,19.26
2024-03-25T10:17:26.601Z,19.17
2024-03-25T10:18:26.575Z,19.10
2024-03-25T10:19:26.606Z,18.90
2024-03-25T10:20:26.567Z,18.80
2024-03-25T10:21:26.536Z,18.67
2024-03-25T10:22:26.538Z,18.59
2024-03-25T10:23:26.513Z,18.46
2024-03-25T10:24:26.611Z,18.39
2024-03-25T10:25:26.518Z,18.32
2024-03-25T10:26:26.482Z,18.30
2024-03-25T10:27:26.487Z,18.31
2024-03-25T10:28:26.556Z,18.31
2024-03-25T10:29:26.447Z,18.39
2024-03-25T10:30:26.502Z,18.47
2024-03-25T10:31:26.432Z,18.51
2024-03-25T10:32:26.422Z,18.48
2024-03-25T10:33:26.411Z,18.54
2024-03-25T10:34:26.484Z,18.63
2024-03-25T10:35:27.888Z,18.78
2024-03-25T10:36:26.490Z,18.88
2024-03-25T10:37:26.369Z,18.94
2024-03-25T10:38:26.365Z,18.98
2024-03-25T10:39:26.382Z,19.04
2024-03-25T10:40:26.346Z,19.03
2024-03-25T10:41:26.325Z,19.03
2024-03-25T10:42:26.409Z,19.11
2024-03-25T10:43:26.317Z,19.09
2024-03-25T10:44:26.285Z,19.04
2024-03-25T10:45:26.378Z,19.09
2024-03-25T10:46:26.266Z,19.17
2024-03-25T10:47:29.027Z,19.29
2024-03-25T10:48:26.249Z,19.46
2024-03-25T10:49:26.238Z,19.61
2024-03-25T10:50:26.243Z,19.71
2024-03-25T10:51:26.217Z,19.79
2024-03-25T10:52:26.276Z,19.89
2024-03-25T10:53:26.389Z,19.92
2024-03-25T10:54:26.187Z,20.02
2024-03-25T10:55:26.183Z,20.04
2024-03-25T10:56:26.172Z,20.06
2024-03-25T10:57:26.199Z,20.08
2024-03-25T10:58:26.167Z,20.11
2024-03-25T10:59:26.206Z,20.10
2024-03-25T11:00:26.147Z,20.12
2024-03-25T11:01:26.179Z,20.14
2024-03-25T11:02:26.098Z,20.18
2024-03-25T11:03:26.151Z,20.19
2024-03-25T11:04:26.095Z,20.22
2024-03-25T11:05:27.422Z,20.27
2024-03-25T11:06:26.062Z,20.28
2024-03-25T11:07:26.143Z,20.31
2024-03-25T11:08:26.057Z,20.34
2024-03-25T11:09:26.030Z,20.40
2024-03-25T11:10:26.149Z,20.48
2024-03-25T11:11:26.166Z,20.46
2024-03-25T11:12:26.025Z,20.43
2024-03-25T11:13:26.008Z,20.37
2024-03-25T11:14:25.978Z,20.28
2024-03-25T11:15:25.993Z,20.19
2024-03-25T11:16:25.962Z,20.11
2024-03-25T11:17:25.992Z,19.98
2024-03-25T11:18:25.946Z,19.93
2024-03-25T11:19:25.925Z,19.94
2024-03-25T11:20:25.917Z,19.99
2024-03-25T11:21:25.936Z,20.06
2024-03-25T11:22:25.919Z,20.11
2024-03-25T11:23:25.884Z,20.09
2024-03-25T11:24:25.901Z,20.02
2024-03-25T11:25:25.891Z,19.98
2024-03-25T11:26:25.854Z,19.91
2024-03-25T11:27:25.861Z,19.95
2024-03-25T11:28:25.867Z,20.10
2024-03-25T11:29:25.850Z,20.23
2024-03-25T11:30:25.837Z,20.36
2024-03-25T11:31:25.809Z,20.52
2024-03-25T11:32:25.798Z,20.44
2024-03-25T11:33:25.805Z,20.40
2024-03-25T11:34:25.795Z,20.31
2024-03-25T11:35:25.777Z,20.13
2024-03-25T11:36:25.759Z,20.01
2024-03-25T11:37:25.755Z,19.88
2024-03-25T11:38:25.729Z,19.80
2024-03-25T11:39:25.744Z,19.74
2024-03-25T11:40:25.711Z,19.57
2024-03-25T11:41:25.710Z,19.62
2024-03-25T11:42:25.696Z,19.64
2024-03-25T11:43:25.683Z,19.61
2024-03-25T11:44:25.686Z,19.57
2024-03-25T11:45:25.703Z,19.45
2024-03-25T11:46:25.660Z,19.25
2024-03-25T11:47:25.680Z,19.28
2024-03-25T11:48:25.638Z,19.32
2024-03-25T11:49:25.644Z,19.41
2024-03-25T11:50:25.636Z,19.50
2024-03-25T11:51:25.625Z,19.62
2024-03-25T11:52:25.631Z,19.69
2024-03-25T11:53:25.594Z,19.75
2024-03-25T11:54:25.569Z,19.82
2024-03-25T11:55:25.584Z,19.99
2024-03-25T11:56:25.552Z,20.01
2024-03-25T11:57:26.381Z,20.02
2024-03-25T11:58:25.540Z,20.05
2024-03-25T11:59:25.527Z,20.16
2024-03-25T12:00:25.531Z,20.25
2024-03-25T12:01:25.538Z,20.35
2024-03-25T12:02:25.501Z,20.43
2024-03-25T12:03:32.853Z,20.46
2024-03-25T12:04:25.507Z,20.37
2024-03-25T12:05:25.464Z,20.25
2024-03-25T12:06:25.503Z,20.19
2024-03-25T12:07:25.480Z,20.10
2024-03-25T12:08:25.431Z,20.03
2024-03-25T12:09:25.438Z,20.04
2024-03-25T12:10:25.422Z,20.04
2024-03-25T12:11:25.428Z,20.15
2024-03-25T12:12:25.390Z,20.19
2024-03-25T12:13:25.387Z,20.26
2024-03-25T12:14:25.377Z,20.33
2024-03-25T12:15:25.399Z,20.45
2024-03-25T12:16:25.371Z,20.42
2024-03-25T12:17:25.345Z,20.37
2024-03-25T12:18:25.351Z,20.30
2024-03-25T12:19:25.347Z,20.27
2024-03-25T12:20:25.337Z,20.21
2024-03-25T12:21:25.379Z,20.12
2024-03-25T12:22:25.299Z,20.01
2024-03-25T12:23:25.318Z,19.83
2024-03-25T12:24:25.286Z,19.61
2024-03-25T12:25:25.277Z,19.44
2024-03-25T12:26:25.267Z,19.28
2024-03-25T12:27:25.276Z,19.12
2024-03-25T12:28:25.243Z,18.99
2024-03-25T12:29:25.232Z,18.89
2024-03-25T12:30:25.215Z,18.87
2024-03-25T12:31:25.220Z,18.82
2024-03-25T12:32:25.721Z,18.78
2024-03-25T12:33:25.226Z,18.78
2024-03-25T12:34:25.219Z,18.80
2024-03-25T12:35:25.191Z,18.85
2024-03-25T12:36:25.152Z,18.86
2024-03-25T12:37:25.143Z,18.89
2024-03-25T12:38:25.172Z,18.93
2024-03-25T12:39:25.157Z,18.94
2024-03-25T12:40:25.143Z,19.01
2024-03-25T12:41:25.110Z,19.13
2024-03-25T12:42:25.755Z,19.25
2024-03-25T12:43:32.884Z,19.27
2024-03-25T12:44:25.118Z,19.35
2024-03-25T12:45:25.083Z,19.49
2024-03-25T12:46:25.063Z,19.57
2024-03-25T12:47:25.070Z,19.68
2024-03-25T12:48:25.046Z,19.75
2024-03-25T12:49:25.036Z,19.82
2024-03-25T12:50:25.041Z,19.85
2024-03-25T12:51:25.029Z,19.82
2024-03-25T12:52:25.000Z,19.81
2024-03-25T12:53:24.997Z,19.79
2024-03-25T12:54:24.986Z,19.82
2024-03-25T12:55:24.980Z,19.90
2024-03-25T12:56:24.974Z,20.00
2024-03-25T12:57:25.070Z,20.09
2024-03-25T12:58:24.949Z,20.20
2024-03-25T12:59:24.937Z,20.28
2024-03-25T13:00:24.920Z,20.36
2024-03-25T13:01:24.916Z,20.35
2024-03-25T13:02:24.910Z,20.35
2024-03-25T13:03:24.922Z,20.24
2024-03-25T13:04:24.877Z,20.17
2024-03-25T13:05:24.867Z,19.99
2024-03-25T13:06:24.883Z,19.84
2024-03-25T13:07:24.853Z,19.96